Halley, Arkansas
Current Conditions -  °F | °C
As of 6:53 PM on Monday 22 Dec 2014 (Local Time) from KLLQ Reporting Station
Haze Haze  
Wind Chill: 57°   Ceiling: 6000
Heat Index: 57°   Visibility: 5mi
Dew Point: 56°   Wind: 3mph
Humidity: 96%   Direction: 170°S
Pressure: 29.63"   Gusts: NA
Location:  33.4898°N, 91.4556°W
Report Text: KLLQ 230053Z AUTO 17003KT 5SM BR OVC060 14/13 A2963 RMK AO2 SLP032 T01390133
Loading
Personal Weather Stations






























Interactive Weather Map New forecast layout! Learn more

10-Day Weather Forecast

Advertisements
Track Severe Weather on mobile